DMN weather

Deming Municipal Airport
Deming, New Mexico, United States

Public forecast

Using degrees Fahrenheit for public forecast. Weather courtesy of forecast.io.

Current aviation weather report (METAR) for Deming Municipal Airport

Retrieved 2019/12/15 09:53 UTC (25 minutes ago):

KDMN 150953Z AUTO 28004KT 10SM CLR 04/02 A2982 RMK AO2 SLP058 T00440017

Aviation forecast (TAF) for Deming Municipal Airport

Retrieved 2019/12/15 06:30 UTC (4 hours ago):

TAF KDMN 150527Z 1506/1606 24008KT P6SM SKC FM151800 25027G37KT P6SM BKN250 FM152300 27014G20KT P6SM FEW250